Time;durP1;ratioP1;P1;durP2;ratioP2;P2;SDS_P1;SDS_P2;PMS_P1;PMS_P2;Temp;Humidity;BMP_temperature;BMP_pressure;BME280_temperature;BME280_humidity;BME280_pressure;Samples;Min_cycle;Max_cycle;Signal;HPM_P1;HPM_P2
2021/05/20 00:01:12;;;;;;;32.15;25.45;;;8.90;99.90;;;;;;5054288;28;20471;-87
2021/05/20 00:03:38;;;;;;;33.03;25.02;;;8.90;99.90;;;;;;5052359;28;20028;-85
2021/05/20 00:06:05;;;;;;;31.08;24.52;;;9.00;99.90;;;;;;5044896;28;20028;-86
2021/05/20 00:08:31;;;;;;;27.50;22.27;;;9.00;99.90;;;;;;5067829;28;20126;-84
2021/05/20 00:10:58;;;;;;;27.08;22.25;;;9.10;99.90;;;;;;5084134;28;20036;-85
2021/05/20 00:13:24;;;;;;;34.10;23.83;;;9.10;99.90;;;;;;5086931;28;20028;-85
2021/05/20 00:15:50;;;;;;;26.48;21.08;;;9.10;99.90;;;;;;5053948;28;20122;-85
2021/05/20 00:18:16;;;;;;;28.73;22.67;;;9.10;99.90;;;;;;5069661;28;20051;-85
2021/05/20 00:20:42;;;;;;;29.25;21.45;;;9.10;99.90;;;;;;5068875;28;20569;-85
2021/05/20 00:23:09;;;;;;;26.98;19.45;;;9.10;99.90;;;;;;5086726;28;20032;-85
2021/05/20 00:25:34;;;;;;;26.90;19.38;;;9.10;99.90;;;;;;5052275;28;20036;-85
2021/05/20 00:28:00;;;;;;;24.13;19.17;;;9.10;99.90;;;;;;5036601;28;20804;-85
2021/05/20 00:30:27;;;;;;;23.48;18.70;;;9.10;99.90;;;;;;5061512;28;20050;-84
2021/05/20 00:32:53;;;;;;;22.13;18.15;;;9.00;99.90;;;;;;5062328;28;20415;-85
2021/05/20 00:35:18;;;;;;;25.02;19.77;;;9.10;99.90;;;;;;5079708;28;20520;-85
2021/05/20 00:37:44;;;;;;;22.70;18.40;;;9.10;99.90;;;;;;5088660;28;20079;-85
2021/05/20 00:40:11;;;;;;;25.27;20.88;;;9.00;99.90;;;;;;5091390;28;20070;-85
2021/05/20 00:42:37;;;;;;;21.85;18.48;;;9.00;99.90;;;;;;5073533;28;20035;-85
2021/05/20 00:45:06;;;;;;;21.73;18.48;;;9.00;99.90;;;;;;5054773;28;20065;-85
2021/05/20 00:47:34;;;;;;;18.58;16.55;;;9.00;99.90;;;;;;5046322;28;20093;-85
2021/05/20 00:50:09;;;;;;;20.27;16.33;;;9.00;99.90;;;;;;5063255;28;20033;-86
2021/05/20 00:52:35;;;;;;;18.75;15.50;;;9.00;99.90;;;;;;5047040;28;20037;-85
2021/05/20 00:55:05;;;;;;;17.35;14.43;;;8.90;99.90;;;;;;5038603;28;20044;-85
2021/05/20 00:57:31;;;;;;;19.65;16.55;;;8.80;99.90;;;;;;5061222;28;20036;-85
2021/05/20 01:00:16;;;;;;;19.17;16.27;;;8.80;99.90;;;;;;5080429;28;20146;-85
2021/05/20 01:02:42;;;;;;;19.83;15.07;;;8.80;99.90;;;;;;5061313;28;20555;-85
2021/05/20 01:05:11;;;;;;;18.58;13.98;;;8.70;99.90;;;;;;5065278;28;20066;-86
2021/05/20 01:07:37;;;;;;;18.38;15.18;;;8.70;99.90;;;;;;5060292;28;20040;-84
2021/05/20 01:10:05;;;;;;;19.83;16.13;;;8.70;99.90;;;;;;5048758;28;20028;-85
2021/05/20 01:12:31;;;;;;;19.55;14.65;;;8.70;99.90;;;;;;5077653;28;20139;-86
2021/05/20 01:14:57;;;;;;;16.50;14.07;;;8.70;99.90;;;;;;5067055;28;20059;-85
2021/05/20 01:17:25;;;;;;;15.68;12.65;;;8.70;99.90;;;;;;5061072;28;20143;-85
2021/05/20 01:19:51;;;;;;;14.25;12.30;;;8.60;99.90;;;;;;5080151;28;20024;-84
2021/05/20 01:22:18;;;;;;;16.45;12.70;;;8.60;99.90;;;;;;5082664;28;20044;-85
2021/05/20 01:24:44;;;;;;;14.30;12.60;;;8.60;99.90;;;;;;5081877;28;20056;-85
2021/05/20 01:27:12;;;;;;;17.70;12.48;;;8.50;99.90;;;;;;5063354;28;20491;-84
2021/05/20 01:29:39;;;;;;;13.48;11.38;;;8.50;99.90;;;;;;5062745;28;20047;-85
2021/05/20 01:32:06;;;;;;;14.23;12.15;;;8.40;99.90;;;;;;5079650;28;20050;-85
2021/05/20 01:34:34;;;;;;;15.18;12.95;;;8.40;99.90;;;;;;5077864;28;20040;-85
2021/05/20 01:37:08;;;;;;;14.13;12.63;;;8.40;99.90;;;;;;5093255;28;20117;-84
2021/05/20 01:39:34;;;;;;;15.93;12.45;;;8.40;99.90;;;;;;5092346;28;20128;-85
2021/05/20 01:42:00;;;;;;;12.43;11.00;;;8.50;99.90;;;;;;5051703;28;20087;-84
2021/05/20 01:44:26;;;;;;;14.52;11.73;;;8.40;99.90;;;;;;5070079;28;20036;-84
2021/05/20 01:46:52;;;;;;;18.98;13.23;;;8.40;99.90;;;;;;5057873;28;20484;-84
2021/05/20 01:49:18;;;;;;;14.38;12.10;;;8.50;99.90;;;;;;5032941;28;20047;-85
2021/05/20 01:51:44;;;;;;;14.35;12.07;;;8.50;99.90;;;;;;5058277;28;20411;-85
2021/05/20 01:54:10;;;;;;;15.70;13.60;;;8.60;99.90;;;;;;5038694;28;20041;-85
2021/05/20 01:56:39;;;;;;;16.95;12.70;;;8.70;99.90;;;;;;5074955;28;20032;-86
2021/05/20 01:59:06;;;;;;;14.15;11.68;;;8.70;99.90;;;;;;5060738;28;20043;-85
2021/05/20 02:01:35;;;;;;;15.73;12.20;;;8.80;99.90;;;;;;5057321;28;20508;-85
2021/05/20 02:04:02;;;;;;;15.25;12.07;;;8.80;99.90;;;;;;5058015;28;21007;-85
2021/05/20 02:06:28;;;;;;;14.25;12.60;;;8.80;99.90;;;;;;5048290;28;20037;-85
2021/05/20 02:08:53;;;;;;;19.08;13.43;;;8.80;99.90;;;;;;5058461;28;20483;-85
2021/05/20 02:11:19;;;;;;;14.95;12.77;;;8.80;99.90;;;;;;5072836;28;20048;-85
2021/05/20 02:13:45;;;;;;;14.75;13.23;;;8.80;99.90;;;;;;5057026;28;20434;-85
2021/05/20 02:16:11;;;;;;;18.52;12.63;;;8.80;99.90;;;;;;5089399;28;20041;-85
2021/05/20 02:18:37;;;;;;;15.45;13.02;;;8.80;99.90;;;;;;5054986;28;20037;-85
2021/05/20 02:21:04;;;;;;;13.25;11.80;;;8.80;99.90;;;;;;5060386;28;20037;-85
2021/05/20 02:23:30;;;;;;;13.95;11.57;;;8.70;99.90;;;;;;5058926;28;20484;-85
2021/05/20 02:25:56;;;;;;;14.45;12.52;;;8.70;99.90;;;;;;5045849;28;20051;-85
2021/05/20 02:28:22;;;;;;;16.05;12.73;;;8.60;99.90;;;;;;5038594;28;20037;-85
2021/05/20 02:30:48;;;;;;;17.50;14.77;;;8.60;99.90;;;;;;5059225;28;20055;-85
2021/05/20 02:33:14;;;;;;;22.80;16.40;;;8.60;99.90;;;;;;5057825;28;20036;-85
2021/05/20 02:35:41;;;;;;;18.73;15.57;;;8.70;99.90;;;;;;5091110;28;20040;-85
2021/05/20 02:38:07;;;;;;;20.83;15.38;;;8.70;99.90;;;;;;5052056;28;20443;-85
2021/05/20 02:40:34;;;;;;;19.63;16.38;;;8.80;99.90;;;;;;5027295;28;20506;-85
2021/05/20 02:43:00;;;;;;;21.15;16.75;;;8.80;99.90;;;;;;5057460;28;20067;-85
2021/05/20 02:45:28;;;;;;;20.27;16.80;;;8.90;99.90;;;;;;5058993;28;20124;-85
2021/05/20 02:47:54;;;;;;;22.20;17.83;;;8.90;99.90;;;;;;5055740;28;20036;-85
2021/05/20 02:50:22;;;;;;;22.33;19.17;;;9.00;99.90;;;;;;5088296;28;20040;-85
2021/05/20 02:52:48;;;;;;;21.50;17.17;;;9.00;99.90;;;;;;5055542;28;20037;-85
2021/05/20 02:55:19;;;;;;;22.15;18.63;;;9.10;99.90;;;;;;5088386;28;20450;-85
2021/05/20 02:57:49;;;;;;;21.60;19.23;;;9.10;99.90;;;;;;5056263;28;20040;-85
2021/05/20 03:00:18;;;;;;;23.73;19.63;;;9.10;99.90;;;;;;5060975;28;20044;-85
2021/05/20 03:02:46;;;;;;;24.42;20.92;;;9.10;99.90;;;;;;5057605;28;20068;-85
2021/05/20 03:05:12;;;;;;;22.42;18.70;;;9.10;99.90;;;;;;5056071;28;20063;-85
2021/05/20 03:07:38;;;;;;;23.02;18.45;;;9.10;99.90;;;;;;5072743;28;20483;-85
2021/05/20 03:10:05;;;;;;;25.98;19.00;;;9.10;99.90;;;;;;5056514;28;20036;-84
2021/05/20 03:12:31;;;;;;;20.35;16.55;;;9.10;99.90;;;;;;5053088;28;20052;-85
2021/05/20 03:14:57;;;;;;;20.02;16.30;;;9.10;99.90;;;;;;5090397;28;20033;-85
2021/05/20 03:17:23;;;;;;;22.35;18.60;;;9.00;99.90;;;;;;5058551;28;20103;-85
2021/05/20 03:19:49;;;;;;;20.10;17.25;;;9.00;99.90;;;;;;5055238;28;20037;-85
2021/05/20 03:22:15;;;;;;;22.90;17.67;;;8.90;99.90;;;;;;5071261;28;20057;-85
2021/05/20 03:24:41;;;;;;;18.70;16.70;;;8.90;99.90;;;;;;5045981;28;20126;-85
2021/05/20 03:27:07;;;;;;;21.65;19.05;;;8.90;99.90;;;;;;5091011;28;20108;-85
2021/05/20 03:29:33;;;;;;;24.50;20.23;;;8.90;99.90;;;;;;5069114;28;20450;-85
2021/05/20 03:31:59;;;;;;;21.48;19.17;;;8.90;99.90;;;;;;5047635;28;20492;-85
2021/05/20 03:34:25;;;;;;;23.35;17.80;;;8.90;99.90;;;;;;5043310;28;20033;-85
2021/05/20 03:36:51;;;;;;;19.55;17.48;;;8.90;99.90;;;;;;5058999;28;20043;-85
2021/05/20 03:39:18;;;;;;;19.88;16.48;;;8.80;99.90;;;;;;5045055;28;20090;-85
2021/05/20 03:41:44;;;;;;;23.85;17.00;;;8.70;99.90;;;;;;5077024;28;20043;-85
2021/05/20 03:44:09;;;;;;;20.33;16.65;;;8.70;99.90;;;;;;5057768;28;20045;-84
2021/05/20 03:46:35;;;;;;;23.13;18.88;;;8.60;99.90;;;;;;5059993;28;20036;-85
2021/05/20 03:49:03;;;;;;;23.55;18.45;;;8.60;99.90;;;;;;5031887;28;20038;-85
2021/05/20 03:51:29;;;;;;;24.52;19.63;;;8.60;99.90;;;;;;5049591;28;20043;-85
2021/05/20 03:53:55;;;;;;;24.63;18.55;;;8.60;99.90;;;;;;5060074;28;20119;-85
2021/05/20 03:56:21;;;;;;;24.33;20.17;;;8.60;99.90;;;;;;5048645;28;20029;-85
2021/05/20 03:58:47;;;;;;;21.33;17.55;;;8.70;99.90;;;;;;5076796;28;20617;-85
2021/05/20 04:01:13;;;;;;;24.20;20.05;;;8.70;99.90;;;;;;5058729;28;20442;-85
2021/05/20 04:03:38;;;;;;;21.33;16.27;;;8.70;99.90;;;;;;5047884;28;20041;-85
2021/05/20 04:06:05;;;;;;;23.65;16.77;;;8.70;99.90;;;;;;5076519;28;20496;-84
2021/05/20 04:08:34;;;;;;;20.95;18.17;;;8.70;99.90;;;;;;5078736;28;20404;-85
2021/05/20 04:11:00;;;;;;;17.25;15.38;;;8.70;99.90;;;;;;5082728;28;20214;-85
2021/05/20 04:13:29;;;;;;;18.80;16.58;;;8.70;99.90;;;;;;5062252;28;20529;-85
2021/05/20 04:15:55;;;;;;;19.77;15.63;;;8.70;99.90;;;;;;5056141;28;20040;-85
2021/05/20 04:18:22;;;;;;;18.83;14.90;;;8.70;99.90;;;;;;5093540;28;20089;-85
2021/05/20 04:20:48;;;;;;;21.50;16.67;;;8.70;99.90;;;;;;5047719;28;20127;-85
2021/05/20 04:23:15;;;;;;;22.42;16.90;;;8.80;99.90;;;;;;5059471;28;20032;-86
2021/05/20 04:25:41;;;;;;;20.33;17.88;;;8.90;99.90;;;;;;5066072;28;20036;-85
2021/05/20 04:28:07;;;;;;;22.75;17.02;;;8.90;99.90;;;;;;5081406;28;20118;-85
2021/05/20 04:30:33;;;;;;;20.95;15.57;;;9.00;99.90;;;;;;5056188;28;20127;-85
2021/05/20 04:32:59;;;;;;;21.20;16.63;;;9.00;99.90;;;;;;5097420;28;20035;-85
2021/05/20 04:35:25;;;;;;;20.60;15.63;;;9.00;99.90;;;;;;5074427;28;20039;-85
2021/05/20 04:37:51;;;;;;;17.35;14.75;;;9.10;99.90;;;;;;5035651;28;20060;-85
2021/05/20 04:40:17;;;;;;;16.20;14.27;;;9.10;99.90;;;;;;5066830;28;20032;-86
2021/05/20 04:42:42;;;;;;;18.10;15.30;;;9.00;99.90;;;;;;5063045;28;20059;-85
2021/05/20 04:45:09;;;;;;;17.10;13.40;;;9.10;99.90;;;;;;5038733;28;20050;-84
2021/05/20 04:47:35;;;;;;;17.10;13.35;;;9.10;99.90;;;;;;5036396;28;20031;-84
2021/05/20 04:50:00;;;;;;;13.82;11.73;;;9.10;99.90;;;;;;5055775;28;20483;-84
2021/05/20 04:52:26;;;;;;;18.77;13.48;;;9.10;99.90;;;;;;5056228;28;20055;-84
2021/05/20 04:54:52;;;;;;;14.25;11.23;;;9.10;99.90;;;;;;5057522;28;20066;-84
2021/05/20 04:57:18;;;;;;;19.35;11.95;;;9.20;99.90;;;;;;5085986;28;20036;-84
2021/05/20 04:59:43;;;;;;;13.77;11.25;;;9.10;99.90;;;;;;5055557;28;20131;-84
2021/05/20 05:02:09;;;;;;;15.88;10.48;;;9.20;99.90;;;;;;5036315;28;20063;-84
2021/05/20 05:04:35;;;;;;;17.15;10.75;;;9.20;99.90;;;;;;5052093;28;20032;-84
2021/05/20 05:07:01;;;;;;;16.40;11.23;;;9.20;99.90;;;;;;5071329;28;20042;-84
2021/05/20 05:09:27;;;;;;;14.75;9.55;;;9.20;99.90;;;;;;5056003;28;20078;-85
2021/05/20 05:11:52;;;;;;;17.05;10.00;;;9.20;99.90;;;;;;5091053;28;20040;-83
2021/05/20 05:14:18;;;;;;;15.95;10.95;;;9.30;99.90;;;;;;5071832;28;20154;-84
2021/05/20 05:16:44;;;;;;;13.60;9.38;;;9.30;99.90;;;;;;5068931;28;20455;-85
2021/05/20 05:19:10;;;;;;;12.90;9.77;;;9.30;99.90;;;;;;5045586;28;20040;-84
2021/05/20 05:21:36;;;;;;;13.68;8.63;;;9.40;99.90;;;;;;5071764;28;20052;-84
2021/05/20 05:24:01;;;;;;;12.15;8.23;;;9.40;99.90;;;;;;5035196;28;20040;-84
2021/05/20 05:26:28;;;;;;;13.18;8.40;;;9.40;99.90;;;;;;5051912;28;20064;-84
2021/05/20 05:28:53;;;;;;;12.48;8.32;;;9.40;99.90;;;;;;5085085;28;20036;-84
2021/05/20 05:31:22;;;;;;;12.38;7.80;;;9.40;99.90;;;;;;5057405;28;20059;-85
2021/05/20 05:33:48;;;;;;;12.25;8.00;;;9.50;99.90;;;;;;5068519;28;20060;-85
2021/05/20 05:36:14;;;;;;;11.70;8.05;;;9.50;99.90;;;;;;5084693;28;20044;-85
2021/05/20 05:38:40;;;;;;;11.73;8.10;;;9.60;99.90;;;;;;5067499;28;20052;-85
2021/05/20 05:41:06;;;;;;;12.70;7.38;;;9.60;99.90;;;;;;5060057;28;20051;-84
2021/05/20 05:43:32;;;;;;;11.65;8.48;;;9.60;99.90;;;;;;5052217;28;20127;-84
2021/05/20 05:45:58;;;;;;;14.57;7.75;;;9.70;99.90;;;;;;5045334;28;20032;-84
2021/05/20 05:48:23;;;;;;;10.60;8.25;;;9.70;99.90;;;;;;5089300;28;20032;-84
2021/05/20 05:50:51;;;;;;;10.82;8.10;;;9.80;99.90;;;;;;5036790;28;20045;-84
2021/05/20 05:53:18;;;;;;;10.70;8.18;;;9.80;99.90;;;;;;5070506;28;20036;-84
2021/05/20 05:55:43;;;;;;;14.02;8.32;;;9.90;99.90;;;;;;5095764;28;20036;-84
2021/05/20 05:58:09;;;;;;;14.07;9.63;;;9.90;99.90;;;;;;5050840;28;20116;-84
2021/05/20 06:00:35;;;;;;;12.55;8.27;;;9.90;99.90;;;;;;5054939;28;20472;-85
2021/05/20 06:03:02;;;;;;;11.43;8.43;;;10.00;99.90;;;;;;5055142;28;20182;-84
2021/05/20 06:05:28;;;;;;;12.30;8.40;;;10.00;99.90;;;;;;5089441;28;20059;-84
2021/05/20 06:07:55;;;;;;;12.02;8.60;;;10.00;99.90;;;;;;5090389;28;20109;-85
2021/05/20 06:10:22;;;;;;;11.25;8.27;;;10.10;99.90;;;;;;5050301;28;20118;-85
2021/05/20 06:12:49;;;;;;;12.52;8.30;;;10.10;99.90;;;;;;5067161;28;20165;-85
2021/05/20 06:15:15;;;;;;;9.75;7.68;;;10.10;99.90;;;;;;5088264;28;20119;-85
2021/05/20 06:17:41;;;;;;;7.93;7.10;;;10.20;99.90;;;;;;5077764;28;20511;-85
2021/05/20 06:20:08;;;;;;;10.65;6.88;;;10.20;99.90;;;;;;5049442;28;20029;-85
2021/05/20 06:22:35;;;;;;;10.63;6.72;;;10.30;99.90;;;;;;5043992;28;20032;-85
2021/05/20 06:25:02;;;;;;;10.80;7.05;;;10.30;99.90;;;;;;5098685;28;20383;-85
2021/05/20 06:27:28;;;;;;;8.65;6.70;;;10.40;99.90;;;;;;5052919;28;20490;-85
2021/05/20 06:29:54;;;;;;;9.50;7.32;;;10.50;99.90;;;;;;5053338;28;20043;-85
2021/05/20 06:32:20;;;;;;;12.93;6.90;;;10.50;99.90;;;;;;5069586;28;20621;-85
2021/05/20 06:34:47;;;;;;;9.35;6.63;;;10.70;99.90;;;;;;5051661;28;20142;-85
2021/05/20 06:37:13;;;;;;;10.63;6.45;;;10.80;99.90;;;;;;5065134;28;20056;-85
2021/05/20 06:39:40;;;;;;;9.55;6.85;;;10.80;99.90;;;;;;5083876;28;20527;-85
2021/05/20 06:42:10;;;;;;;9.05;6.43;;;10.90;99.90;;;;;;5064236;28;20479;-85
2021/05/20 06:44:36;;;;;;;8.95;7.18;;;10.90;99.90;;;;;;5062183;28;20119;-85
2021/05/20 06:47:02;;;;;;;8.85;7.25;;;10.90;99.90;;;;;;5102450;28;20114;-85
2021/05/20 06:49:28;;;;;;;8.43;7.53;;;10.90;99.90;;;;;;5051942;28;20127;-85
2021/05/20 06:51:54;;;;;;;9.80;7.78;;;10.90;99.90;;;;;;5077116;28;20101;-85
2021/05/20 06:54:20;;;;;;;10.43;8.38;;;10.90;99.90;;;;;;5053381;28;20581;-85
2021/05/20 06:56:50;;;;;;;11.38;8.38;;;11.00;99.90;;;;;;5085778;28;20157;-85
2021/05/20 07:02:04;;;;;;;8.73;6.88;;;11.20;99.90;;;;;;5082590;28;20044;-85
2021/05/20 07:04:30;;;;;;;10.18;6.80;;;11.20;99.90;;;;;;5058097;28;20495;-85
2021/05/20 07:07:01;;;;;;;10.88;7.07;;;11.20;99.90;;;;;;5068816;28;20036;-84
2021/05/20 07:09:28;;;;;;;10.32;6.90;;;11.30;99.90;;;;;;5069076;28;20040;-85
2021/05/20 07:11:54;;;;;;;14.18;7.05;;;11.40;99.90;;;;;;5051680;28;20091;-84
2021/05/20 07:14:20;;;;;;;7.50;6.65;;;11.40;99.90;;;;;;5070502;28;20028;-85
2021/05/20 07:16:46;;;;;;;10.02;6.53;;;11.50;99.90;;;;;;5052597;28;20044;-84
2021/05/20 07:19:12;;;;;;;7.03;6.15;;;11.50;99.90;;;;;;5069798;28;20494;-84
2021/05/20 07:21:38;;;;;;;9.48;5.85;;;11.40;99.90;;;;;;5102611;28;20036;-85
2021/05/20 07:24:04;;;;;;;9.43;6.55;;;11.50;99.90;;;;;;5053909;28;20069;-84
2021/05/20 07:26:30;;;;;;;7.90;5.30;;;11.50;99.90;;;;;;5051806;28;20051;-84
2021/05/20 07:28:56;;;;;;;8.25;5.53;;;11.50;99.90;;;;;;5068698;28;20043;-84
2021/05/20 07:31:21;;;;;;;8.60;5.50;;;11.50;99.90;;;;;;5035749;28;20039;-84
2021/05/20 07:33:47;;;;;;;8.23;5.35;;;11.50;99.90;;;;;;5086066;28;20090;-85
2021/05/20 07:36:13;;;;;;;7.20;5.20;;;11.50;99.90;;;;;;5068529;28;20113;-85
2021/05/20 07:38:39;;;;;;;7.25;6.45;;;11.50;99.90;;;;;;5035136;28;20499;-84
2021/05/20 07:41:06;;;;;;;9.60;6.47;;;11.50;99.90;;;;;;5067812;28;20047;-84
2021/05/20 07:43:32;;;;;;;9.93;5.10;;;11.50;99.90;;;;;;5068398;28;20502;-84
2021/05/20 07:45:58;;;;;;;7.70;5.60;;;11.60;99.90;;;;;;5051782;28;20036;-84
2021/05/20 07:48:25;;;;;;;8.52;5.72;;;11.60;99.90;;;;;;5086670;28;20035;-85
2021/05/20 07:50:52;;;;;;;8.18;5.53;;;11.50;99.90;;;;;;5048955;28;20040;-84
2021/05/20 07:53:18;;;;;;;7.15;5.30;;;11.50;99.90;;;;;;5050535;28;20465;-84
2021/05/20 07:55:44;;;;;;;10.02;6.28;;;11.50;99.90;;;;;;5033469;28;20102;-84
2021/05/20 07:58:09;;;;;;;7.82;6.10;;;11.50;99.90;;;;;;5050265;28;20486;-84
2021/05/20 08:00:35;;;;;;;7.93;4.68;;;11.50;99.90;;;;;;5070111;28;20399;-84
2021/05/20 08:05:40;;;;;;;5.78;4.70;;;11.70;99.90;;;;;;5053224;28;20028;-83
2021/05/20 08:13:03;;;;;;;4.78;4.32;;;11.80;99.90;;;;;;5071093;28;20036;-84
2021/05/20 08:15:29;;;;;;;8.57;5.20;;;11.90;99.90;;;;;;5053676;28;20075;-84
2021/05/20 08:17:55;;;;;;;5.40;4.00;;;12.00;99.90;;;;;;5069746;28;20075;-84
2021/05/20 08:20:21;;;;;;;7.40;4.47;;;12.00;99.90;;;;;;5052804;28;20050;-84
2021/05/20 08:22:47;;;;;;;7.78;5.85;;;12.00;99.90;;;;;;5053171;28;20052;-84
2021/05/20 08:25:13;;;;;;;7.68;6.10;;;12.10;99.90;;;;;;5069777;28;20046;-84
2021/05/20 08:27:39;;;;;;;6.85;5.10;;;12.10;99.90;;;;;;5070034;28;20036;-84
2021/05/20 08:30:08;;;;;;;6.18;5.00;;;12.20;99.90;;;;;;5070171;28;20039;-84
2021/05/20 08:32:34;;;;;;;8.55;5.18;;;12.30;99.90;;;;;;5053520;28;20136;-84
2021/05/20 08:35:00;;;;;;;7.65;4.78;;;12.40;99.90;;;;;;5053124;28;20489;-85
2021/05/20 08:37:26;;;;;;;5.10;3.90;;;12.60;99.90;;;;;;5087848;28;20637;-84
2021/05/20 08:39:53;;;;;;;4.63;3.63;;;12.60;99.90;;;;;;5069550;28;20054;-84
2021/05/20 08:42:18;;;;;;;4.88;3.47;;;12.70;99.90;;;;;;5036610;28;20040;-84
2021/05/20 08:44:44;;;;;;;4.97;2.70;;;12.60;99.90;;;;;;5069847;28;20048;-84
2021/05/20 08:47:11;;;;;;;4.20;2.97;;;12.60;99.90;;;;;;5053251;28;20067;-84
2021/05/20 08:49:38;;;;;;;5.13;3.28;;;12.60;99.90;;;;;;5069609;28;20543;-84
2021/05/20 08:52:04;;;;;;;5.18;2.83;;;12.50;99.90;;;;;;5053189;28;20058;-84
2021/05/20 08:54:30;;;;;;;6.95;3.42;;;12.40;99.90;;;;;;5071214;28;20035;-84
2021/05/20 08:56:56;;;;;;;5.15;3.15;;;12.30;99.90;;;;;;5056795;28;20028;-84
2021/05/20 08:59:23;;;;;;;4.47;3.55;;;12.20;99.90;;;;;;5056595;28;20051;-84
2021/05/20 09:01:51;;;;;;;4.55;3.40;;;12.20;99.90;;;;;;5073534;28;20060;-84
2021/05/20 09:04:17;;;;;;;4.35;3.30;;;12.20;99.90;;;;;;5073143;28;20066;-84
2021/05/20 09:06:52;;;;;;;4.00;3.20;;;12.30;99.90;;;;;;5065954;28;20070;-84
2021/05/20 09:09:21;;;;;;;4.90;2.60;;;12.30;99.90;;;;;;5055678;28;20051;-84
2021/05/20 09:11:52;;;;;;;7.13;2.50;;;12.40;99.90;;;;;;5055052;28;20566;-84
2021/05/20 09:14:34;;;;;;;3.65;2.17;;;12.50;99.90;;;;;;5072557;28;20079;-85
2021/05/20 09:17:10;;;;;;;;;;;12.60;99.90;;;;;;5091034;28;20040;-84
2021/05/20 09:19:38;;;;;;;7.32;1.65;;;12.70;99.90;;;;;;5056005;28;19926;-84
2021/05/20 09:22:14;;;;;;;4.88;2.00;;;12.80;99.90;;;;;;5065192;28;20500;-85
2021/05/20 09:24:51;;;;;;;5.35;1.90;;;12.90;99.90;;;;;;5075912;28;20054;-84
2021/05/20 09:27:34;;;;;;;4.10;1.70;;;13.20;99.90;;;;;;5072640;28;20039;-84
2021/05/20 09:30:18;;;;;;;;;;;13.30;99.90;;;;;;5091522;28;20032;-84
2021/05/20 09:32:52;;;;;;;3.97;1.70;;;13.30;99.90;;;;;;5072623;28;19916;-85
2021/05/20 09:35:21;;;;;;;1.55;1.30;;;13.30;99.90;;;;;;5072810;28;20043;-85
2021/05/20 09:37:54;;;;;;;2.53;1.50;;;13.30;99.90;;;;;;5090064;28;20036;-85
2021/05/20 09:40:27;;;;;;;5.38;2.80;;;13.40;99.90;;;;;;5090626;28;20043;-84
2021/05/20 09:42:53;;;;;;;5.15;2.90;;;13.50;99.90;;;;;;5072704;28;20048;-85
2021/05/20 09:45:23;;;;;;;4.25;1.90;;;13.60;99.90;;;;;;5055838;28;20147;-85
2021/05/20 09:47:49;;;;;;;4.57;2.08;;;13.60;99.90;;;;;;5072234;28;20127;-85
2021/05/20 09:50:22;;;;;;;2.88;1.30;;;13.60;99.90;;;;;;5056009;28;20059;-85
2021/05/20 09:52:50;;;;;;;4.78;2.08;;;13.70;99.90;;;;;;5089891;28;20040;-85
2021/05/20 09:55:19;;;;;;;2.65;1.55;;;13.60;99.90;;;;;;5055213;28;20413;-85
2021/05/20 09:57:45;;;;;;;2.88;1.70;;;13.60;99.90;;;;;;5072079;28;20032;-85
2021/05/20 10:00:16;;;;;;;4.43;1.30;;;13.60;99.90;;;;;;5072469;28;20042;-84
2021/05/20 10:02:44;;;;;;;2.17;0.90;;;13.60;99.90;;;;;;5072205;28;20521;-85
2021/05/20 10:05:27;;;;;;;2.55;1.00;;;13.60;99.90;;;;;;5072145;28;20047;-85
2021/05/20 10:07:54;;;;;;;2.08;1.05;;;13.60;99.90;;;;;;5071954;28;20071;-84
2021/05/20 10:10:20;;;;;;;2.95;1.55;;;13.50;99.90;;;;;;5071398;28;20087;-84
2021/05/20 10:12:46;;;;;;;2.80;1.75;;;13.50;99.90;;;;;;5071866;28;20044;-85
2021/05/20 10:15:17;;;;;;;2.45;1.70;;;13.60;99.90;;;;;;5071722;28;20040;-85
2021/05/20 10:17:44;;;;;;;3.42;2.00;;;13.60;99.90;;;;;;5055603;28;20032;-84
2021/05/20 10:20:13;;;;;;;6.10;1.90;;;13.60;99.90;;;;;;5055419;28;20086;-85
2021/05/20 10:22:39;;;;;;;3.75;2.28;;;13.60;99.90;;;;;;5069116;28;20077;-85
2021/05/20 10:25:07;;;;;;;3.40;2.00;;;13.70;99.90;;;;;;5074917;28;20490;-85
2021/05/20 10:27:35;;;;;;;4.45;2.25;;;13.70;99.90;;;;;;5075394;28;20215;-85
2021/05/20 10:30:03;;;;;;;2.90;2.60;;;13.70;99.90;;;;;;5091894;28;20551;-85
2021/05/20 10:32:29;;;;;;;6.50;2.30;;;13.70;99.90;;;;;;5075326;28;20036;-85
2021/05/20 10:35:04;;;;;;;4.97;2.42;;;13.70;99.90;;;;;;5075134;28;20494;-85
2021/05/20 10:37:41;;;;;;;5.13;2.88;;;13.70;99.90;;;;;;5091290;28;20132;-84
2021/05/20 10:40:21;;;;;;;5.75;2.95;;;13.70;99.90;;;;;;5081597;28;20044;-85
2021/05/20 10:43:00;;;;;;;7.80;4.35;;;13.70;99.90;;;;;;5071311;28;20044;-83
2021/05/20 10:45:26;;;;;;;5.78;4.18;;;13.70;99.90;;;;;;5070866;28;20127;-85
2021/05/20 10:48:04;;;;;;;7.05;4.18;;;13.80;99.90;;;;;;5089480;28;20150;-85
2021/05/20 10:50:55;;;;;;;10.23;4.90;;;13.90;99.90;;;;;;5070999;28;20090;-85
2021/05/20 10:53:58;;;;;;;8.18;4.97;;;14.00;99.90;;;;;;5070718;28;20212;-84
2021/05/20 10:56:24;;;;;;;;;;;13.90;99.90;;;;;;5071641;28;20700;-85
2021/05/20 10:58:53;;;;;;;7.05;4.30;;;13.90;99.90;;;;;;5089412;28;19962;-85
2021/05/20 11:01:23;;;;;;;4.75;4.10;;;13.80;99.90;;;;;;5054275;28;20411;-85
2021/05/20 11:03:52;;;;;;;4.60;4.00;;;13.70;99.90;;;;;;5071107;28;20048;-85
2021/05/20 11:06:19;;;;;;;4.88;3.17;;;13.80;99.90;;;;;;5070806;28;20487;-84
2021/05/20 11:08:45;;;;;;;5.20;3.65;;;13.80;99.90;;;;;;5070231;28;20044;-84
2021/05/20 11:11:20;;;;;;;8.10;4.55;;;13.80;99.90;;;;;;5088747;28;20063;-84
2021/05/20 11:13:46;;;;;;;7.05;4.47;;;14.00;99.90;;;;;;5071128;28;20063;-84
2021/05/20 11:16:19;;;;;;;6.60;5.68;;;14.00;99.90;;;;;;5070072;28;20040;-84
2021/05/20 11:18:49;;;;;;;7.95;5.88;;;14.00;99.90;;;;;;5088760;28;20097;-85
2021/05/20 11:21:16;;;;;;;8.88;6.68;;;14.10;99.90;;;;;;5039549;28;20095;-85
2021/05/20 11:23:42;;;;;;;8.55;7.05;;;14.20;99.90;;;;;;5090504;28;20133;-84
2021/05/20 11:26:12;;;;;;;10.25;8.10;;;14.20;99.90;;;;;;5055178;28;20484;-85
2021/05/20 11:28:41;;;;;;;8.60;6.88;;;14.30;99.90;;;;;;5050751;28;20043;-85
2021/05/20 11:31:08;;;;;;;9.75;6.90;;;14.40;99.90;;;;;;5050427;28;20048;-84
2021/05/20 11:33:44;;;;;;;7.28;5.63;;;14.40;99.90;;;;;;5050659;28;20033;-85
2021/05/20 11:36:12;;;;;;;9.77;5.55;;;14.50;99.90;;;;;;5052189;28;20553;-85
2021/05/20 11:38:50;;;;;;;8.82;5.15;;;14.70;99.90;;;;;;5049813;28;20061;-85
2021/05/20 11:41:17;;;;;;;6.43;4.63;;;14.80;99.90;;;;;;5066803;28;20496;-84
2021/05/20 11:43:43;;;;;;;7.30;4.88;;;14.90;99.90;;;;;;5088299;28;20048;-85
2021/05/20 11:46:20;;;;;;;7.18;5.13;;;14.90;99.90;;;;;;5070085;28;20089;-85
2021/05/20 11:49:02;;;;;;;5.93;4.53;;;15.00;99.90;;;;;;5053756;28;20130;-85
2021/05/20 11:51:37;;;;;;;7.80;4.63;;;15.00;99.90;;;;;;5054300;28;20047;-84
2021/05/20 11:54:17;;;;;;;10.80;5.70;;;15.00;99.90;;;;;;5069809;28;20044;-85
2021/05/20 11:56:45;;;;;;;6.60;5.30;;;15.10;99.90;;;;;;5070327;28;20123;-85
2021/05/20 11:59:11;;;;;;;8.30;4.70;;;15.10;99.90;;;;;;5087642;28;20028;-85
2021/05/20 12:01:37;;;;;;;6.65;5.03;;;15.20;99.90;;;;;;5088789;28;20044;-84
2021/05/20 12:04:05;;;;;;;7.47;4.50;;;15.20;99.90;;;;;;5053624;28;20495;-85
2021/05/20 12:06:32;;;;;;;7.28;4.38;;;15.30;99.90;;;;;;5103655;28;20028;-85
2021/05/20 12:09:14;;;;;;;10.02;4.10;;;15.30;99.90;;;;;;5069673;28;20039;-85
2021/05/20 12:11:41;;;;;;;7.75;5.55;;;15.40;99.90;;;;;;5053560;28;20522;-85
2021/05/20 12:14:35;;;;;;;8.68;5.13;;;15.40;99.90;;;;;;5052991;28;20040;-85
2021/05/20 12:17:09;;;;;;;7.97;4.20;;;15.40;99.90;;;;;;5070094;28;20039;-85
2021/05/20 12:19:45;;;;;;;8.55;3.85;;;15.50;99.90;;;;;;5070314;28;20035;-85
2021/05/20 12:22:25;;;;;;;6.30;3.80;;;15.50;99.90;;;;;;5097539;28;20339;-85
2021/05/20 12:25:00;;;;;;;7.53;4.30;;;15.50;99.90;;;;;;5108518;28;20039;-85
2021/05/20 12:27:36;;;;;;;5.40;3.53;;;15.50;99.90;;;;;;5073686;28;20039;-85
2021/05/20 12:30:24;;;;;;;6.25;3.78;;;15.70;99.90;;;;;;5093561;28;20035;-85
2021/05/20 12:32:52;;;;;;;5.28;3.70;;;15.70;99.90;;;;;;5094559;28;20120;-84
2021/05/20 12:35:20;;;;;;;5.00;4.10;;;15.70;99.90;;;;;;5093257;28;20877;-85
2021/05/20 12:38:08;;;;;;;7.30;3.20;;;15.70;99.90;;;;;;5070728;28;20046;-85
2021/05/20 12:40:49;;;;;;;3.38;2.40;;;15.60;99.90;;;;;;5053645;28;20143;-85
2021/05/20 12:43:32;;;;;;;6.15;2.25;;;15.50;99.90;;;;;;5053685;28;20105;-85
2021/05/20 12:45:59;;;;;;;4.15;1.85;;;15.60;99.90;;;;;;5040363;28;20040;-85
2021/05/20 12:48:30;;;;;;;3.13;2.03;;;15.60;99.90;;;;;;5091847;28;20040;-84
2021/05/20 12:51:04;;;;;;;3.45;1.35;;;15.70;99.90;;;;;;5073093;28;20079;-84
2021/05/20 12:53:38;;;;;;;2.08;1.33;;;15.80;99.90;;;;;;5056905;28;20541;-85
2021/05/20 12:56:24;;;;;;;2.92;1.20;;;15.90;99.90;;;;;;5091496;28;20517;-84
2021/05/20 12:58:53;;;;;;;4.85;1.48;;;15.90;99.90;;;;;;5056438;28;20071;-84